Terminal Aerodrome Forecast
Issued by NWS

Home | Current Version | Previous Version | Text Only | Print | Product List | Glossary On
Versions: 1 2 3 4 5 6 7 8 9 10 11 12 13 14 15 16 17 18 19 20 21 22 23 24 25 26 27 28 29 30 31 32 33 34 35 36 37 38 39 40 41 42 43 44 45 46 47 48 49 50
000
FTAK31 PAFA 261157 AAA
TAFAOM
TAF AMD
PAOM 261157Z 2612/2712 25008KT P6SM VCSH FEW014 SCT021 OVC040
      TEMPO 2612/2615 4SM -SN BR BKN006
     FM270000 14009KT 4SM -SN BR OVC015
     FM270600 11005KT P6SM -RA OVC050
     FM270900 10005KT 4SM -RA BR BKN025 OVC050=

USA.gov is the U.S. government's official web portal to all federal, state and local government web resources and services.